Etusivu
METAR-TAF:

METAR-TAF

Lentoasemat :

Bolton Field

Columbus, Ohio, Yhdysvallat

Leveyspiiri: 39-54-03N, Pituuspiiri: 083-08-14W, korkeus merenpinnasta: 276 m

Tämänhetkinen sää

Tämä raportti tehtiin 12 minuuttia sitten, kello 04.15 UTC
Tuuli 6 kn idästä/kaakosta
Lämpötila 5°C
Kosteus 65%
Ilmanpaine 1013 hPa
Näkyvyys: 16.1 km
Hajonneita pilviä 9000 ft:n korkeudessa
Pilvistä 11000 ft:n korkeudessa

METAR: KTZR 180415Z AUTO 11006KT 10SM BKN090 OVC110 05/M01 A2992 RMK AO2 T00471007

Aika: 23:27 (04:27 UTC)


TAF: puuttuu

Säähavainnot ja -ennusteet yli 4000 lentoasemalta (METAR- ja TAF-raportit).

Käytössä olevat sääasemat on merkitty karttaan keltaisilla ja punaisilla pisteillä.

Aseta hiiri pisteen päälle nähdäksesi sääaseman nimen.

Klikkaa sitten nähdäksesi säähavainnot ja -ennusteet.

Kartan vaihtaminen: klikkaa mustalla rastilla varustettuja vihreitä pisteitä, niin voit zoomata sisään; viivalla varustettua vihreää pistettä, niin voit zoomata ulos tai vihreitä nuolia, niin pääset viereisille kartoille.


METAR-TAF: